createdAt,value
2018-12-25T00:01:23.776Z,4.80
2018-12-25T00:04:07.433Z,4.80
2018-12-25T00:06:37.608Z,4.90
2018-12-25T00:09:08.266Z,5.00
2018-12-25T00:11:57.217Z,5.00
2018-12-25T00:14:38.814Z,4.90
2018-12-25T00:20:04.036Z,4.80
2018-12-25T00:25:29.730Z,4.70
2018-12-25T00:28:11.161Z,4.60
2018-12-25T00:33:46.850Z,4.50
2018-12-25T00:39:12.352Z,4.40
2018-12-25T00:44:37.455Z,4.20
2018-12-25T00:47:18.943Z,4.20
2018-12-25T00:50:00.925Z,4.20
2018-12-25T00:58:16.898Z,4.20
2018-12-25T01:00:59.762Z,4.20
2018-12-25T01:03:40.762Z,4.20
2018-12-25T01:06:22.031Z,4.10
2018-12-25T01:09:03.939Z,4.00
2018-12-25T01:11:45.685Z,4.00
2018-12-25T01:17:11.679Z,4.20
2018-12-25T01:19:53.308Z,4.10
2018-12-25T01:22:34.391Z,4.10
2018-12-25T01:28:00.732Z,4.00
2018-12-25T01:30:42.530Z,4.10
2018-12-25T01:33:22.819Z,4.00
2018-12-25T01:38:55.166Z,4.00
2018-12-25T01:41:33.891Z,4.10
2018-12-25T01:44:14.783Z,4.20
2018-12-25T01:49:44.796Z,4.20
2018-12-25T01:52:25.776Z,4.10
2018-12-25T01:55:07.056Z,4.00
2018-12-25T02:00:31.575Z,4.10
2018-12-25T02:05:54.714Z,4.10
2018-12-25T02:11:19.600Z,4.00
2018-12-25T02:14:00.902Z,3.90
2018-12-25T02:16:42.487Z,3.80
2018-12-25T02:19:24.126Z,3.80
2018-12-25T02:21:53.678Z,3.70
2018-12-25T02:24:42.742Z,3.70
2018-12-25T02:27:24.566Z,3.70
2018-12-25T02:30:05.577Z,3.80
2018-12-25T02:32:47.400Z,3.80
2018-12-25T02:35:27.326Z,3.90
2018-12-25T02:38:09.463Z,3.90
2018-12-25T02:40:50.927Z,3.90
2018-12-25T02:43:34.539Z,3.90
2018-12-25T02:49:00.134Z,3.80
2018-12-25T02:54:28.081Z,3.70
2018-12-25T02:59:54.428Z,3.50
2018-12-25T03:02:38.339Z,3.50
2018-12-25T03:08:10.798Z,3.60
2018-12-25T03:13:39.115Z,3.70
2018-12-25T03:16:20.957Z,3.60
2018-12-25T03:19:04.571Z,3.60
2018-12-25T03:21:49.053Z,3.60
2018-12-25T03:24:33.118Z,3.50
2018-12-25T03:30:00.318Z,3.50
2018-12-25T03:32:42.765Z,3.40
2018-12-25T03:35:28.692Z,3.40
2018-12-25T03:40:59.935Z,3.40
2018-12-25T03:43:41.507Z,3.40
2018-12-25T03:46:22.880Z,3.40
2018-12-25T03:49:04.601Z,3.30
2018-12-25T03:51:45.615Z,3.30
2018-12-25T03:57:00.557Z,3.20
2018-12-25T03:59:49.361Z,3.20
2018-12-25T04:02:40.508Z,3.20
2018-12-25T04:05:20.557Z,3.10
2018-12-25T04:08:02.041Z,3.20
2018-12-25T04:10:42.131Z,3.20
2018-12-25T04:13:25.152Z,3.20
2018-12-25T04:18:53.664Z,3.20
2018-12-25T04:24:22.326Z,3.20
2018-12-25T04:35:24.589Z,3.10
2018-12-25T04:40:52.352Z,3.00
2018-12-25T04:46:12.776Z,3.10
2018-12-25T04:48:56.363Z,3.10
2018-12-25T04:51:37.993Z,3.10
2018-12-25T04:54:22.238Z,3.10
2018-12-25T04:57:03.485Z,3.10
2018-12-25T04:59:45.123Z,3.10
2018-12-25T05:02:28.730Z,3.00
2018-12-25T05:05:10.993Z,3.00
2018-12-25T05:07:52.683Z,3.00
2018-12-25T05:10:33.006Z,3.00
2018-12-25T05:13:14.807Z,2.90
2018-12-25T05:18:41.943Z,3.10
2018-12-25T05:24:10.548Z,3.20
2018-12-25T05:29:37.829Z,3.10
2018-12-25T05:32:24.229Z,3.00
2018-12-25T05:40:43.050Z,3.20
2018-12-25T05:46:13.486Z,3.20
2018-12-25T05:48:56.716Z,3.20
2018-12-25T05:51:38.498Z,3.10
2018-12-25T05:54:23.982Z,3.20
2018-12-25T05:57:06.909Z,3.00
2018-12-25T06:02:36.928Z,3.00
2018-12-25T06:05:20.851Z,3.00
2018-12-25T06:08:05.368Z,2.90
2018-12-25T06:10:35.301Z,3.00
2018-12-25T06:13:24.007Z,3.00
2018-12-25T06:16:12.662Z,3.00
2018-12-25T06:21:50.891Z,3.00
2018-12-25T06:24:32.257Z,3.00
2018-12-25T06:27:14.202Z,3.00
2018-12-25T06:32:44.653Z,3.00
2018-12-25T06:35:24.868Z,3.10
2018-12-25T06:38:08.401Z,3.20
2018-12-25T06:40:52.505Z,3.10
2018-12-25T06:43:28.622Z,3.10
2018-12-25T06:48:55.424Z,3.00
2018-12-25T06:51:36.919Z,3.00
2018-12-25T06:57:11.806Z,3.00
2018-12-25T06:59:55.375Z,3.00
2018-12-25T07:02:35.111Z,3.10
2018-12-25T07:08:05.663Z,3.20
2018-12-25T07:10:47.691Z,3.20
2018-12-25T07:21:52.435Z,3.30
2018-12-25T07:24:33.971Z,3.20
2018-12-25T07:27:16.514Z,3.10
2018-12-25T07:29:58.067Z,3.20
2018-12-25T07:32:42.764Z,3.20
2018-12-25T07:35:26.190Z,3.20
2018-12-25T07:38:06.887Z,3.20
2018-12-25T07:43:32.586Z,3.30
2018-12-25T07:48:59.410Z,3.20
2018-12-25T07:54:30.291Z,3.30
2018-12-25T07:59:58.315Z,3.10
2018-12-25T08:02:39.763Z,3.20
2018-12-25T08:05:25.019Z,3.10
2018-12-25T08:08:12.637Z,3.10
2018-12-25T08:10:56.646Z,3.00
2018-12-25T08:13:37.713Z,3.00
2018-12-25T08:16:22.581Z,3.10
2018-12-25T08:21:50.588Z,3.00
2018-12-25T08:24:31.662Z,3.10
2018-12-25T08:27:12.653Z,3.10
2018-12-25T08:29:56.662Z,3.20
2018-12-25T08:35:22.146Z,3.30
2018-12-25T08:38:10.851Z,3.30
2018-12-25T08:40:55.037Z,3.30
2018-12-25T08:43:36.652Z,3.30
2018-12-25T08:46:17.447Z,3.30
2018-12-25T08:51:46.277Z,3.30
2018-12-25T08:57:11.946Z,3.30
2018-12-25T09:02:38.177Z,3.30
2018-12-25T09:05:19.725Z,3.30
2018-12-25T09:08:01.221Z,3.40
2018-12-25T09:10:43.288Z,3.40
2018-12-25T09:13:25.211Z,3.40
2018-12-25T09:18:51.123Z,3.50
2018-12-25T09:24:30.033Z,3.60
2018-12-25T09:27:11.623Z,3.60
2018-12-25T09:36:01.894Z,4.10
2018-12-25T09:41:28.000Z,4.20
2018-12-25T09:46:53.916Z,4.30
2018-12-25T09:49:37.302Z,4.40
2018-12-25T09:52:18.898Z,4.40
2018-12-25T09:55:00.405Z,4.40
2018-12-25T09:57:45.059Z,4.50
2018-12-25T10:00:26.323Z,4.50
2018-12-25T10:03:07.131Z,4.50
2018-12-25T10:05:48.302Z,4.50
2018-12-25T10:08:29.857Z,4.50
2018-12-25T10:13:50.135Z,4.60
2018-12-25T10:16:31.014Z,4.70
2018-12-25T10:19:12.668Z,4.70
2018-12-25T10:22:02.747Z,4.80
2018-12-25T10:24:38.292Z,4.80
2018-12-25T10:27:19.838Z,4.80
2018-12-25T10:30:01.247Z,4.90
2018-12-25T10:32:31.366Z,5.00
2018-12-25T10:35:20.371Z,5.00
2018-12-25T10:38:04.763Z,5.00
2018-12-25T10:43:30.737Z,5.00
2018-12-25T10:46:11.793Z,4.90
2018-12-25T10:48:52.663Z,5.00
2018-12-25T10:51:34.221Z,5.10
2018-12-25T10:54:16.103Z,5.00
2018-12-25T10:56:57.537Z,5.10
2018-12-25T10:59:41.994Z,5.20
2018-12-25T11:02:23.367Z,5.20
2018-12-25T11:05:04.351Z,5.30
2018-12-25T11:07:46.304Z,5.40
2018-12-25T11:10:30.103Z,5.40
2018-12-25T11:16:07.611Z,5.50
2018-12-25T11:21:33.359Z,5.70
2018-12-25T11:27:03.050Z,5.80
2018-12-25T11:29:44.624Z,5.90
2018-12-25T11:35:15.122Z,6.00
2018-12-25T11:37:55.034Z,6.10
2018-12-25T11:40:35.858Z,6.20
2018-12-25T11:46:01.211Z,6.60
2018-12-25T11:48:42.844Z,7.00
2018-12-25T11:51:24.396Z,7.40
2018-12-25T11:54:06.114Z,7.90
2018-12-25T11:56:47.632Z,9.20
2018-12-25T11:59:29.753Z,11.00
2018-12-25T12:02:17.183Z,12.50
2018-12-25T12:07:35.411Z,15.10
2018-12-25T12:15:46.398Z,16.80
2018-12-25T12:18:28.004Z,16.90
2018-12-25T12:21:12.457Z,17.30
2018-12-25T12:26:28.783Z,16.90
2018-12-25T12:29:17.649Z,17.10
2018-12-25T12:31:59.474Z,17.40
2018-12-25T12:34:41.807Z,17.90
2018-12-25T12:37:22.988Z,18.40
2018-12-25T12:42:47.802Z,19.80
2018-12-25T12:48:13.408Z,20.20
2018-12-25T12:50:55.431Z,20.30
2018-12-25T12:53:24.971Z,19.90
2018-12-25T12:56:13.895Z,18.20
2018-12-25T12:58:55.212Z,16.40
2018-12-25T13:04:20.615Z,12.20
2018-12-25T13:07:01.672Z,11.00
2018-12-25T13:12:31.590Z,9.70
2018-12-25T13:15:13.172Z,9.00
2018-12-25T13:17:54.558Z,8.70
2018-12-25T13:20:36.314Z,8.50
2018-12-25T13:23:17.991Z,8.30
2018-12-25T13:28:43.668Z,8.00
2018-12-25T13:34:09.486Z,8.00
2018-12-25T13:36:51.542Z,7.90
2018-12-25T13:39:35.508Z,7.80
2018-12-25T13:44:49.714Z,7.40
2018-12-25T13:56:01.195Z,7.50
2018-12-25T13:58:42.268Z,7.40
2018-12-25T14:04:27.527Z,7.20
2018-12-25T14:07:11.624Z,7.30
2018-12-25T14:09:52.769Z,7.30
2018-12-25T14:15:37.970Z,7.20
2018-12-25T14:21:07.036Z,7.00
2018-12-25T14:23:50.976Z,7.10
2018-12-25T14:26:32.963Z,7.20
2018-12-25T14:29:14.342Z,7.10
2018-12-25T14:34:42.082Z,6.80
2018-12-25T14:37:23.772Z,6.80
2018-12-25T14:40:05.112Z,6.70
2018-12-25T14:42:49.132Z,6.70
2018-12-25T14:48:15.904Z,6.70
2018-12-25T14:50:57.063Z,6.70
2018-12-25T14:53:38.915Z,6.80
2018-12-25T14:56:22.633Z,6.70
2018-12-25T14:59:07.687Z,6.70
2018-12-25T15:01:49.101Z,6.60
2018-12-25T15:04:31.350Z,6.50
2018-12-25T15:10:00.938Z,6.50
2018-12-25T15:12:43.145Z,6.40
2018-12-25T15:15:26.071Z,6.30
2018-12-25T15:18:07.969Z,6.10
2018-12-25T15:20:52.560Z,6.10
2018-12-25T15:23:33.615Z,6.10
2018-12-25T15:28:59.244Z,6.00
2018-12-25T15:31:41.042Z,6.00
2018-12-25T15:34:22.855Z,6.00
2018-12-25T15:37:05.104Z,5.80
2018-12-25T15:39:49.822Z,5.70
2018-12-25T15:45:19.253Z,5.70
2018-12-25T15:50:46.078Z,5.40
2018-12-25T15:53:27.829Z,5.30
2018-12-25T15:56:09.456Z,5.20
2018-12-25T16:01:35.086Z,5.20
2018-12-25T16:04:16.499Z,5.20
2018-12-25T16:06:58.363Z,5.20
2018-12-25T16:12:21.865Z,5.00
2018-12-25T16:18:00.687Z,5.00
2018-12-25T16:20:42.343Z,5.10
2018-12-25T16:26:08.862Z,5.10
2018-12-25T16:28:52.178Z,5.10
2018-12-25T16:31:33.622Z,5.10
2018-12-25T16:34:15.187Z,5.00
2018-12-25T16:36:57.423Z,5.00
2018-12-25T16:42:25.028Z,4.90
2018-12-25T16:45:06.428Z,4.80
2018-12-25T16:47:48.303Z,4.70
2018-12-25T16:53:18.072Z,4.60
2018-12-25T16:58:43.463Z,4.60
2018-12-25T17:01:25.572Z,4.60
2018-12-25T17:04:06.813Z,4.60
2018-12-25T17:06:48.361Z,4.60
2018-12-25T17:09:30.501Z,4.60
2018-12-25T17:12:11.929Z,4.50
2018-12-25T17:17:44.435Z,4.50
2018-12-25T17:25:58.415Z,4.40
2018-12-25T17:28:40.133Z,4.40
2018-12-25T17:31:24.736Z,4.40
2018-12-25T17:36:50.309Z,4.40
2018-12-25T17:45:02.614Z,4.40
2018-12-25T17:47:44.085Z,4.30
2018-12-25T17:50:25.102Z,4.30
2018-12-25T17:53:07.371Z,4.20
2018-12-25T17:55:48.728Z,4.20
2018-12-25T18:01:19.296Z,4.20
2018-12-25T18:06:45.788Z,4.10
2018-12-25T18:09:28.401Z,4.00
2018-12-25T18:12:12.270Z,4.00
2018-12-25T18:14:54.495Z,4.00
2018-12-25T18:17:38.567Z,4.00
2018-12-25T18:20:19.768Z,3.90
2018-12-25T18:23:03.823Z,3.90
2018-12-25T18:25:46.465Z,3.90
2018-12-25T18:28:28.348Z,3.90
2018-12-25T18:33:52.222Z,3.80
2018-12-25T18:39:19.633Z,3.80
2018-12-25T18:42:01.796Z,3.80
2018-12-25T18:44:43.561Z,3.80
2018-12-25T18:47:28.301Z,3.80
2018-12-25T18:52:53.942Z,3.80
2018-12-25T18:58:19.755Z,3.60
2018-12-25T19:03:44.982Z,3.60
2018-12-25T19:09:15.682Z,3.60
2018-12-25T19:14:43.783Z,3.60
2018-12-25T19:17:26.114Z,3.60
2018-12-25T19:20:08.008Z,3.60
2018-12-25T19:22:49.610Z,3.60
2018-12-25T19:25:34.863Z,3.50
2018-12-25T19:28:16.424Z,3.50
2018-12-25T19:30:57.798Z,3.50
2018-12-25T19:33:39.323Z,3.40
2018-12-25T19:36:23.909Z,3.40
2018-12-25T19:39:05.354Z,3.30
2018-12-25T19:41:46.945Z,3.40
2018-12-25T19:44:27.392Z,3.40
2018-12-25T19:47:08.728Z,3.40
2018-12-25T19:49:49.905Z,3.40
2018-12-25T19:52:35.073Z,3.40
2018-12-25T19:58:07.057Z,3.30
2018-12-25T20:03:40.576Z,3.20
2018-12-25T20:06:22.219Z,3.20
2018-12-25T20:09:04.881Z,3.20
2018-12-25T20:11:46.592Z,3.20
2018-12-25T20:14:31.663Z,3.20
2018-12-25T20:19:59.660Z,3.20
2018-12-25T20:25:25.540Z,3.20
2018-12-25T20:28:07.398Z,3.20
2018-12-25T20:33:42.326Z,3.10
2018-12-25T20:36:24.361Z,3.00
2018-12-25T20:39:06.231Z,3.00
2018-12-25T20:41:47.667Z,2.90
2018-12-25T20:44:28.710Z,3.00
2018-12-25T20:52:45.883Z,3.10
2018-12-25T20:55:27.636Z,3.10
2018-12-25T20:58:12.075Z,3.10
2018-12-25T21:06:25.856Z,3.00
2018-12-25T21:11:57.427Z,3.10
2018-12-25T21:14:39.728Z,3.10
2018-12-25T21:17:21.383Z,3.10
2018-12-25T21:20:02.829Z,3.10
2018-12-25T21:22:46.662Z,3.00
2018-12-25T21:28:17.830Z,3.00
2018-12-25T21:31:01.183Z,3.00
2018-12-25T21:33:46.438Z,3.10
2018-12-25T21:36:28.064Z,3.00
2018-12-25T21:41:57.678Z,3.00
2018-12-25T21:44:39.300Z,3.00
2018-12-25T21:47:20.744Z,3.00
2018-12-25T21:50:04.821Z,3.00
2018-12-25T21:52:46.330Z,2.90
2018-12-25T21:55:28.000Z,2.90
2018-12-25T21:58:10.126Z,2.90
2018-12-25T22:00:51.885Z,2.80
2018-12-25T22:03:33.424Z,2.80
2018-12-25T22:06:17.964Z,2.80
2018-12-25T22:09:01.633Z,2.70
2018-12-25T22:11:42.712Z,2.70
2018-12-25T22:14:23.486Z,2.60
2018-12-25T22:17:04.933Z,2.60
2018-12-25T22:19:46.644Z,2.50
2018-12-25T22:22:27.709Z,2.50
2018-12-25T22:24:57.121Z,2.50
2018-12-25T22:27:45.624Z,2.60
2018-12-25T22:30:34.122Z,2.60
2018-12-25T22:33:15.692Z,2.70
2018-12-25T22:35:58.189Z,2.70
2018-12-25T22:38:38.951Z,2.60
2018-12-25T22:41:20.443Z,2.60
2018-12-25T22:44:01.933Z,2.50
2018-12-25T22:46:43.355Z,2.50
2018-12-25T22:49:24.420Z,2.50
2018-12-25T22:52:07.061Z,2.50
2018-12-25T22:54:48.506Z,2.50
2018-12-25T23:00:18.935Z,2.50
2018-12-25T23:03:01.145Z,2.50
2018-12-25T23:05:44.392Z,2.50
2018-12-25T23:08:25.675Z,2.40
2018-12-25T23:11:07.079Z,2.40
2018-12-25T23:13:47.815Z,2.40
2018-12-25T23:16:29.107Z,2.40
2018-12-25T23:19:10.730Z,2.40
2018-12-25T23:21:53.537Z,2.40
2018-12-25T23:24:23.064Z,2.40
2018-12-25T23:27:11.475Z,2.40
2018-12-25T23:29:59.918Z,2.40
2018-12-25T23:32:41.222Z,2.40
2018-12-25T23:35:22.281Z,2.30
2018-12-25T23:38:03.646Z,2.30
2018-12-25T23:43:40.828Z,2.30
2018-12-25T23:46:22.521Z,2.30
2018-12-25T23:49:03.156Z,2.30
2018-12-25T23:51:43.826Z,2.20
2018-12-25T23:54:25.286Z,2.20
2018-12-25T23:59:45.078Z,2.20
